Pagrindinis puslapis
METAR-TAF:

METAR-TAF

Oro uostai :

Paganella, Italija

platuma: 46-09N, ilguma: 011-02E, Aukštis: 2125 m

Dabartinis oras

Ataskaita buvo paskelbta 59 minutes, ne 12:55 UTC
Vėjas 3 kt iš Pietvakarių
Temperatūra 3°C
Drėgmė 41%
Slėgis 1033 hPa
Matomumas 10 km arba daugiau
nėra debesų žemiau 1500 m ir nėra kamuolinių lietaus debesų

METAR: LIVP 251255Z 22003KT CAVOK 03/M09 Q1033 RMK SKC MON LIB VAL NIL VIS MIN 9999

Laikas: 14:54 (13:54 UTC)


TAF: trūkstamas

Orai ataskaitas ir orų prognozės (METAR, TAF).

turimą stotys yra geltonos ir raudonos taškus žemėlapyje.

Perkelti pele per norėdami pamatyti stoties vardą.

Tada spustelėkite, norėdami matyti oro stebėjimo ir prognozės.

Norėdami pakeisti žemėlapį: spustelėkite ant žalios mygtukų su juodo kryžiaus žemyn,; žalią mygtuką su brūkšneliu, jei norite nutolinti; arba žalių rodyklių gretimoms žemėlapius.


METAR-TAF: